Time;durP1;ratioP1;P1;durP2;ratioP2;P2;SDS_P1;SDS_P2;PMS_P1;PMS_P2;Temp;Humidity;BMP_temperature;BMP_pressure;BME280_temperature;BME280_humidity;BME280_pressure;Samples;Min_cycle;Max_cycle;Signal;HPM_P1;HPM_P2
2021/12/31 00:01:04;;;;;;;0.50;0.10;;;;;;;;;;5029349;28;20045;-65
2021/12/31 00:03:29;;;;;;;0.70;0.10;;;;;;;;;;5030589;28;20441;-65
2021/12/31 00:05:54;;;;;;;0.47;0.10;;;;;;;;;;5029483;28;20040;-66
2021/12/31 00:08:19;;;;;;;0.57;0.10;;;;;;;;;;5032485;28;20044;-65
2021/12/31 00:10:44;;;;;;;1.15;0.15;;;;;;;;;;5028448;28;20044;-65
2021/12/31 00:13:10;;;;;;;0.55;0.20;;;;;;;;;;5034193;28;20056;-65
2021/12/31 00:15:35;;;;;;;0.30;0.20;;;;;;;;;;5033690;28;20756;-66
2021/12/31 00:18:00;;;;;;;0.95;0.10;;;;;;;;;;5034333;28;20540;-65
2021/12/31 00:20:26;;;;;;;0.88;0.10;;;;;;;;;;5033320;28;20604;-65
2021/12/31 00:23:04;;;;;;;0.68;0.10;;;;;;;;;;5028724;28;20025;-65
2021/12/31 00:25:30;;;;;;;0.10;0.10;;;;;;;;;;5029922;28;20049;-66
2021/12/31 00:27:56;;;;;;;0.50;0.10;;;;;;;;;;5032598;28;20501;-65
2021/12/31 00:30:21;;;;;;;0.45;0.20;;;;;;;;;;5033071;28;20053;-65
2021/12/31 00:32:46;;;;;;;0.40;0.10;;;;;;;;;;5032391;28;20371;-65
2021/12/31 00:35:12;;;;;;;0.55;0.20;;;;;;;;;;5032523;28;20386;-65
2021/12/31 00:37:38;;;;;;;0.10;0.03;;;;;;;;;;5033847;28;20060;-65
2021/12/31 00:40:05;;;;;;;0.30;0.10;;;;;;;;;;5027669;28;20014;-65
2021/12/31 00:42:30;;;;;;;0.50;0.20;;;;;;;;;;5032161;28;20045;-65
2021/12/31 00:44:55;;;;;;;0.47;0.15;;;;;;;;;;5033073;28;20025;-66
2021/12/31 00:47:21;;;;;;;0.30;0.10;;;;;;;;;;5031847;28;20453;-65
2021/12/31 00:49:46;;;;;;;0.10;0.03;;;;;;;;;;5032518;28;20503;-65
2021/12/31 00:52:12;;;;;;;0.60;0.10;;;;;;;;;;5015854;28;20493;-65
2021/12/31 00:54:38;;;;;;;1.15;0.10;;;;;;;;;;5033477;28;20026;-65
2021/12/31 00:57:04;;;;;;;0.10;0.00;;;;;;;;;;5033276;28;20021;-65
2021/12/31 00:59:31;;;;;;;0.63;0.10;;;;;;;;;;5032945;28;20375;-66
2021/12/31 01:01:57;;;;;;;0.17;0.10;;;;;;;;;;5033677;28;20036;-65
2021/12/31 01:04:22;;;;;;;0.20;0.10;;;;;;;;;;5031265;28;20397;-65
2021/12/31 01:06:48;;;;;;;0.55;0.10;;;;;;;;;;5033048;28;20025;-65
2021/12/31 01:09:13;;;;;;;0.20;0.10;;;;;;;;;;5012926;28;20133;-65
2021/12/31 01:11:41;;;;;;;0.15;0.00;;;;;;;;;;5024024;28;20064;-65
2021/12/31 01:14:14;;;;;;;0.15;0.10;;;;;;;;;;5032502;28;20029;-65
2021/12/31 01:16:47;;;;;;;0.20;0.10;;;;;;;;;;5033125;28;20021;-65
2021/12/31 01:21:37;;;;;;;0.20;0.10;;;;;;;;;;5033174;28;20467;-65
2021/12/31 01:24:03;;;;;;;0.13;0.10;;;;;;;;;;5013996;28;20038;-65
2021/12/31 01:26:28;;;;;;;0.10;0.10;;;;;;;;;;5032958;28;20030;-65
2021/12/31 01:28:54;;;;;;;0.57;0.15;;;;;;;;;;5031922;28;20065;-65
2021/12/31 01:31:21;;;;;;;0.60;0.10;;;;;;;;;;5033182;28;20036;-66
2021/12/31 01:33:46;;;;;;;0.47;0.10;;;;;;;;;;5031604;28;20029;-65
2021/12/31 01:36:11;;;;;;;1.55;0.10;;;;;;;;;;5032576;28;20033;-65
2021/12/31 01:38:36;;;;;;;0.17;0.10;;;;;;;;;;5031930;28;20474;-65
2021/12/31 01:41:02;;;;;;;0.25;0.10;;;;;;;;;;5025572;28;20057;-66
2021/12/31 01:43:27;;;;;;;1.10;0.10;;;;;;;;;;5031791;28;20021;-65
2021/12/31 01:45:55;;;;;;;0.43;0.10;;;;;;;;;;5032368;28;20524;-65
2021/12/31 01:48:27;;;;;;;0.20;0.10;;;;;;;;;;5020511;28;20125;-65
2021/12/31 01:50:53;;;;;;;0.15;0.10;;;;;;;;;;5032763;28;20477;-65
2021/12/31 01:53:21;;;;;;;0.40;0.00;;;;;;;;;;5030825;28;20092;-65
2021/12/31 01:55:47;;;;;;;0.40;0.00;;;;;;;;;;5031874;28;20478;-65
2021/12/31 01:58:15;;;;;;;0.10;0.03;;;;;;;;;;5029895;28;20032;-65
2021/12/31 02:00:40;;;;;;;0.10;0.00;;;;;;;;;;5031833;28;20056;-65
2021/12/31 02:03:05;;;;;;;0.10;0.00;;;;;;;;;;5032296;28;20064;-65
2021/12/31 02:05:31;;;;;;;1.15;0.10;;;;;;;;;;5013395;28;20512;-66
2021/12/31 02:07:57;;;;;;;0.10;0.10;;;;;;;;;;5024291;28;20088;-65
2021/12/31 02:10:22;;;;;;;0.20;0.10;;;;;;;;;;5022470;28;20489;-65
2021/12/31 02:12:48;;;;;;;0.13;0.10;;;;;;;;;;5031975;28;20026;-65
2021/12/31 02:15:15;;;;;;;0.10;0.10;;;;;;;;;;5031177;28;20302;-65
2021/12/31 02:17:40;;;;;;;0.10;0.10;;;;;;;;;;5030943;28;20064;-66
2021/12/31 02:20:07;;;;;;;0.10;0.00;;;;;;;;;;5013431;28;20053;-66
2021/12/31 02:22:35;;;;;;;0.40;0.08;;;;;;;;;;5031455;28;20552;-65
2021/12/31 02:25:01;;;;;;;0.38;0.10;;;;;;;;;;5026761;28;20022;-66
2021/12/31 02:27:26;;;;;;;0.20;0.13;;;;;;;;;;5006636;28;20492;-66
2021/12/31 02:29:52;;;;;;;0.17;0.10;;;;;;;;;;5013624;28;20026;-65
2021/12/31 02:32:17;;;;;;;0.10;0.00;;;;;;;;;;5014122;28;20033;-65
2021/12/31 02:34:42;;;;;;;0.43;0.10;;;;;;;;;;5030610;28;20465;-65
2021/12/31 02:37:08;;;;;;;0.30;0.10;;;;;;;;;;5030519;28;20028;-65
2021/12/31 02:39:38;;;;;;;0.20;0.10;;;;;;;;;;5026966;28;20036;-65
2021/12/31 02:42:03;;;;;;;0.25;0.10;;;;;;;;;;5029824;28;20041;-65
2021/12/31 02:44:28;;;;;;;0.38;0.10;;;;;;;;;;5031551;28;20095;-65
2021/12/31 02:46:53;;;;;;;0.63;0.10;;;;;;;;;;5031218;28;20486;-65
2021/12/31 02:49:23;;;;;;;0.32;0.10;;;;;;;;;;5031032;28;20104;-65
2021/12/31 02:51:48;;;;;;;0.15;0.05;;;;;;;;;;5014977;28;20025;-65
2021/12/31 02:54:15;;;;;;;0.25;0.10;;;;;;;;;;5030632;28;20037;-65
2021/12/31 02:56:40;;;;;;;0.43;0.05;;;;;;;;;;5030015;28;20026;-65
2021/12/31 02:59:06;;;;;;;0.98;0.20;;;;;;;;;;5024951;28;20068;-65
2021/12/31 03:01:31;;;;;;;1.45;0.20;;;;;;;;;;5025535;28;20071;-65
2021/12/31 03:03:57;;;;;;;0.30;0.20;;;;;;;;;;5031137;28;20386;-65
2021/12/31 03:06:23;;;;;;;0.20;0.10;;;;;;;;;;5031168;28;20048;-65
2021/12/31 03:08:48;;;;;;;0.70;0.10;;;;;;;;;;5030265;28;20032;-65
2021/12/31 03:11:14;;;;;;;0.65;0.10;;;;;;;;;;5026024;28;20622;-65
2021/12/31 03:13:39;;;;;;;0.10;0.10;;;;;;;;;;5030877;28;20025;-65
2021/12/31 03:16:06;;;;;;;0.55;0.10;;;;;;;;;;5030682;28;20155;-65
2021/12/31 03:18:32;;;;;;;0.20;0.17;;;;;;;;;;5019536;28;20513;-65
2021/12/31 03:21:00;;;;;;;0.20;0.10;;;;;;;;;;5022396;28;20113;-65
2021/12/31 03:23:25;;;;;;;0.43;0.10;;;;;;;;;;5030269;28;20025;-65
2021/12/31 03:25:51;;;;;;;0.22;0.20;;;;;;;;;;5031580;28;20030;-66
2021/12/31 03:28:16;;;;;;;1.20;0.20;;;;;;;;;;5012766;28;20033;-65
2021/12/31 03:30:41;;;;;;;0.73;0.30;;;;;;;;;;5030084;28;20036;-66
2021/12/31 03:33:06;;;;;;;0.73;0.15;;;;;;;;;;5030866;28;20029;-65
2021/12/31 03:35:32;;;;;;;0.40;0.10;;;;;;;;;;5030630;28;20036;-65
2021/12/31 03:37:57;;;;;;;1.25;0.30;;;;;;;;;;5030217;28;20017;-65
2021/12/31 03:40:22;;;;;;;0.80;0.20;;;;;;;;;;5026475;28;20056;-65
2021/12/31 03:42:48;;;;;;;0.20;0.17;;;;;;;;;;5031693;28;20030;-65
2021/12/31 03:45:13;;;;;;;0.93;0.20;;;;;;;;;;5034728;28;20052;-65
2021/12/31 03:47:38;;;;;;;0.60;0.10;;;;;;;;;;5034670;28;20104;-65
2021/12/31 03:50:03;;;;;;;0.35;0.20;;;;;;;;;;5033624;28;20033;-65
2021/12/31 03:52:29;;;;;;;0.47;0.20;;;;;;;;;;5034282;28;20036;-65
2021/12/31 03:54:54;;;;;;;0.77;0.40;;;;;;;;;;5034444;28;20074;-65
2021/12/31 03:57:19;;;;;;;0.40;0.20;;;;;;;;;;5034058;28;20068;-65
2021/12/31 03:59:44;;;;;;;0.40;0.20;;;;;;;;;;5033718;28;20117;-65
2021/12/31 04:02:09;;;;;;;0.43;0.30;;;;;;;;;;5032463;28;20018;-66
2021/12/31 04:04:35;;;;;;;0.55;0.20;;;;;;;;;;5016192;28;20033;-66
2021/12/31 04:07:00;;;;;;;1.00;0.20;;;;;;;;;;5016794;28;20490;-66
2021/12/31 04:09:25;;;;;;;1.85;0.30;;;;;;;;;;5030015;28;20163;-65
2021/12/31 04:11:50;;;;;;;0.73;0.20;;;;;;;;;;5031650;28;20104;-65
2021/12/31 04:14:15;;;;;;;0.80;0.10;;;;;;;;;;5033433;28;20037;-65
2021/12/31 04:16:40;;;;;;;0.20;0.10;;;;;;;;;;5034236;28;20382;-65
2021/12/31 04:19:06;;;;;;;0.30;0.20;;;;;;;;;;5034044;28;20026;-65
2021/12/31 04:21:31;;;;;;;0.73;0.15;;;;;;;;;;5025534;28;20037;-65
2021/12/31 04:24:13;;;;;;;0.73;0.20;;;;;;;;;;5033742;28;20390;-65
2021/12/31 04:26:38;;;;;;;0.30;0.10;;;;;;;;;;5031008;28;20478;-66
2021/12/31 04:29:04;;;;;;;0.82;0.20;;;;;;;;;;5033784;28;20108;-66
2021/12/31 04:31:29;;;;;;;0.50;0.20;;;;;;;;;;5032513;28;20037;-65
2021/12/31 04:33:54;;;;;;;0.68;0.30;;;;;;;;;;5032423;28;20075;-65
2021/12/31 04:36:20;;;;;;;0.65;0.10;;;;;;;;;;5034112;28;20030;-65
2021/12/31 04:38:45;;;;;;;0.10;0.10;;;;;;;;;;5033126;28;20032;-65
2021/12/31 04:41:10;;;;;;;0.30;0.20;;;;;;;;;;5028725;28;20072;-65
2021/12/31 04:43:35;;;;;;;0.55;0.10;;;;;;;;;;5032870;28;20433;-65
2021/12/31 04:46:00;;;;;;;1.45;0.20;;;;;;;;;;5015684;28;20486;-66
2021/12/31 04:48:26;;;;;;;0.20;0.10;;;;;;;;;;5033535;28;20458;-65
2021/12/31 04:50:51;;;;;;;0.00;0.00;;;;;;;;;;5015572;28;20482;-65
2021/12/31 04:53:16;;;;;;;0.17;0.10;;;;;;;;;;5031523;28;20167;-65
2021/12/31 04:55:41;;;;;;;0.63;0.20;;;;;;;;;;5032311;28;20029;-65
2021/12/31 04:58:06;;;;;;;0.52;0.10;;;;;;;;;;5033273;28;20025;-66
2021/12/31 05:00:32;;;;;;;0.50;0.10;;;;;;;;;;5015392;28;20037;-65
2021/12/31 05:02:57;;;;;;;0.45;0.10;;;;;;;;;;5032916;28;20021;-65
2021/12/31 05:05:22;;;;;;;0.10;0.10;;;;;;;;;;5032362;28;20029;-66
2021/12/31 05:07:48;;;;;;;0.47;0.10;;;;;;;;;;5015608;28;20017;-65
2021/12/31 05:10:15;;;;;;;0.10;0.10;;;;;;;;;;5029691;28;20109;-66
2021/12/31 05:12:40;;;;;;;0.22;0.10;;;;;;;;;;5032530;28;20080;-65
2021/12/31 05:15:07;;;;;;;0.40;0.10;;;;;;;;;;5004027;28;20556;-65
2021/12/31 05:17:33;;;;;;;0.15;0.15;;;;;;;;;;5030848;28;20032;-65
2021/12/31 05:19:59;;;;;;;0.00;0.00;;;;;;;;;;5014777;28;20067;-65
2021/12/31 05:22:24;;;;;;;1.15;0.10;;;;;;;;;;5032747;28;20030;-65
2021/12/31 05:24:49;;;;;;;0.05;0.00;;;;;;;;;;5030136;28;20017;-65
2021/12/31 05:27:14;;;;;;;0.00;0.00;;;;;;;;;;5014606;28;20067;-65
2021/12/31 05:29:40;;;;;;;2.38;0.20;;;;;;;;;;5032856;28;20025;-65
2021/12/31 05:32:05;;;;;;;0.00;0.00;;;;;;;;;;5032436;28;20064;-65
2021/12/31 05:34:30;;;;;;;0.35;0.00;;;;;;;;;;5027052;28;20064;-65
2021/12/31 05:36:55;;;;;;;0.10;0.10;;;;;;;;;;5032617;28;20048;-65
2021/12/31 05:39:21;;;;;;;0.50;0.10;;;;;;;;;;5012807;28;20132;-65
2021/12/31 05:41:46;;;;;;;0.70;0.10;;;;;;;;;;5029225;28;20045;-65
2021/12/31 05:44:11;;;;;;;0.73;0.20;;;;;;;;;;5030624;28;20082;-65
2021/12/31 05:46:37;;;;;;;0.10;0.10;;;;;;;;;;5033120;28;20037;-65
2021/12/31 05:49:03;;;;;;;0.10;0.10;;;;;;;;;;5031917;28;20029;-65
2021/12/31 05:51:28;;;;;;;0.20;0.10;;;;;;;;;;5024045;28;20057;-65
2021/12/31 05:53:54;;;;;;;0.40;0.08;;;;;;;;;;5031562;28;20060;-65
2021/12/31 05:56:19;;;;;;;0.20;0.10;;;;;;;;;;5030058;28;20041;-65
2021/12/31 05:58:44;;;;;;;0.43;0.10;;;;;;;;;;5031915;28;20478;-65
2021/12/31 06:01:10;;;;;;;0.63;0.10;;;;;;;;;;5031813;28;20071;-65
2021/12/31 06:03:35;;;;;;;0.10;0.10;;;;;;;;;;5031464;28;20052;-65
2021/12/31 06:06:00;;;;;;;0.13;0.10;;;;;;;;;;5031097;28;20033;-65
2021/12/31 06:08:25;;;;;;;0.68;0.10;;;;;;;;;;5031603;28;20041;-65
2021/12/31 06:10:50;;;;;;;0.10;0.10;;;;;;;;;;4992576;28;20036;-65
2021/12/31 06:13:16;;;;;;;0.55;0.10;;;;;;;;;;5031383;28;20061;-65
2021/12/31 06:15:42;;;;;;;0.20;0.10;;;;;;;;;;5014009;28;20018;-65
2021/12/31 06:18:07;;;;;;;0.93;0.10;;;;;;;;;;5031145;28;20016;-65
2021/12/31 06:20:34;;;;;;;0.47;0.10;;;;;;;;;;5032319;28;20377;-65
2021/12/31 06:22:59;;;;;;;0.82;0.10;;;;;;;;;;5014228;28;20443;-65
2021/12/31 06:25:25;;;;;;;0.40;0.10;;;;;;;;;;5014463;28;20068;-65
2021/12/31 06:27:50;;;;;;;0.13;0.08;;;;;;;;;;5030696;28;20017;-65
2021/12/31 06:30:15;;;;;;;0.38;0.10;;;;;;;;;;5031260;28;20544;-65
2021/12/31 06:32:41;;;;;;;2.60;0.20;;;;;;;;;;5031271;28;20497;-65
2021/12/31 06:35:06;;;;;;;0.98;0.10;;;;;;;;;;5031672;28;20057;-65
2021/12/31 06:37:31;;;;;;;0.85;0.10;;;;;;;;;;5030703;28;20071;-65
2021/12/31 06:40:01;;;;;;;0.20;0.10;;;;;;;;;;5025881;28;20022;-65
2021/12/31 06:42:26;;;;;;;0.13;0.03;;;;;;;;;;5029170;28;20046;-65
2021/12/31 06:44:51;;;;;;;0.80;0.17;;;;;;;;;;5005063;28;20429;-65
2021/12/31 06:47:16;;;;;;;0.35;0.17;;;;;;;;;;5028601;28;20086;-65
2021/12/31 06:49:42;;;;;;;0.70;0.10;;;;;;;;;;5016052;28;20395;-68
2021/12/31 06:52:07;;;;;;;0.15;0.10;;;;;;;;;;5021106;28;20020;-65
2021/12/31 06:54:33;;;;;;;0.20;0.10;;;;;;;;;;5013472;28;20030;-66
2021/12/31 06:56:58;;;;;;;1.20;0.20;;;;;;;;;;5014948;28;20014;-65
2021/12/31 06:59:23;;;;;;;0.73;0.20;;;;;;;;;;5004223;28;20522;-65
2021/12/31 07:01:48;;;;;;;0.45;0.20;;;;;;;;;;5029565;28;20025;-65
2021/12/31 07:04:13;;;;;;;0.90;0.10;;;;;;;;;;5031077;28;20120;-65
2021/12/31 07:06:39;;;;;;;0.52;0.20;;;;;;;;;;4993748;28;20036;-65
2021/12/31 07:09:04;;;;;;;0.45;0.20;;;;;;;;;;5026205;28;20036;-66
2021/12/31 07:11:29;;;;;;;1.48;0.52;;;;;;;;;;5026339;28;20029;-65
2021/12/31 07:13:54;;;;;;;1.15;0.20;;;;;;;;;;5030602;28;20025;-65
2021/12/31 07:16:19;;;;;;;0.20;0.10;;;;;;;;;;5030870;28;20033;-65
2021/12/31 07:18:45;;;;;;;0.40;0.20;;;;;;;;;;5028244;28;20101;-65
2021/12/31 07:21:10;;;;;;;0.30;0.20;;;;;;;;;;5032749;28;20429;-65
2021/12/31 07:23:35;;;;;;;0.30;0.10;;;;;;;;;;5016898;28;20102;-65
2021/12/31 07:26:00;;;;;;;0.98;0.20;;;;;;;;;;5035143;28;20381;-66
2021/12/31 07:28:27;;;;;;;0.85;0.15;;;;;;;;;;5035099;28;20041;-65
2021/12/31 07:30:53;;;;;;;1.23;0.30;;;;;;;;;;5034068;28;20018;-65
2021/12/31 07:33:19;;;;;;;0.55;0.20;;;;;;;;;;5033485;28;20535;-66
2021/12/31 07:35:45;;;;;;;0.45;0.20;;;;;;;;;;5016991;28;20025;-65
2021/12/31 07:38:18;;;;;;;0.75;0.20;;;;;;;;;;5034674;28;20037;-65
2021/12/31 07:40:44;;;;;;;0.30;0.20;;;;;;;;;;5029249;28;20494;-65
2021/12/31 07:43:10;;;;;;;0.43;0.20;;;;;;;;;;5033134;28;20044;-65
2021/12/31 07:45:35;;;;;;;0.52;0.20;;;;;;;;;;5012088;28;20041;-65
2021/12/31 07:48:01;;;;;;;0.85;0.50;;;;;;;;;;5034914;28;20269;-66
2021/12/31 07:50:26;;;;;;;0.68;0.10;;;;;;;;;;5034539;28;20183;-65
2021/12/31 07:52:52;;;;;;;0.57;0.10;;;;;;;;;;5033979;28;20504;-65
2021/12/31 07:55:17;;;;;;;0.40;0.30;;;;;;;;;;5030400;28;20030;-65
2021/12/31 07:57:42;;;;;;;1.88;0.20;;;;;;;;;;5030510;28;20024;-65
2021/12/31 08:00:07;;;;;;;0.70;0.28;;;;;;;;;;5033830;28;20072;-65
2021/12/31 08:02:33;;;;;;;0.45;0.10;;;;;;;;;;5033822;28;20076;-65
2021/12/31 08:04:58;;;;;;;0.50;0.25;;;;;;;;;;5015654;28;20018;-65
2021/12/31 08:07:23;;;;;;;0.28;0.20;;;;;;;;;;5034091;28;20033;-65
2021/12/31 08:09:48;;;;;;;1.33;0.20;;;;;;;;;;5026331;28;20045;-65
2021/12/31 08:12:13;;;;;;;0.50;0.13;;;;;;;;;;5008582;28;20452;-65
2021/12/31 08:14:38;;;;;;;0.25;0.10;;;;;;;;;;5026405;28;20072;-64
2021/12/31 08:17:04;;;;;;;0.80;0.20;;;;;;;;;;5027566;28;20398;-64
2021/12/31 08:19:29;;;;;;;0.80;0.10;;;;;;;;;;5023865;28;20030;-64
2021/12/31 08:21:54;;;;;;;0.47;0.20;;;;;;;;;;5022068;28;20102;-64
2021/12/31 08:24:19;;;;;;;0.22;0.13;;;;;;;;;;5031341;28;20288;-64
2021/12/31 08:26:44;;;;;;;0.95;0.28;;;;;;;;;;5033609;28;20584;-64
2021/12/31 08:29:12;;;;;;;1.17;0.30;;;;;;;;;;5033195;28;20483;-64
2021/12/31 08:31:38;;;;;;;0.75;0.20;;;;;;;;;;5023033;28;20060;-64
2021/12/31 08:34:03;;;;;;;0.25;0.10;;;;;;;;;;5031107;28;20489;-65
2021/12/31 08:36:28;;;;;;;1.17;0.30;;;;;;;;;;5014735;28;20065;-64
2021/12/31 08:38:53;;;;;;;1.10;0.20;;;;;;;;;;5032930;28;20110;-65
2021/12/31 08:41:18;;;;;;;0.50;0.20;;;;;;;;;;5024408;28;20052;-64
2021/12/31 08:43:44;;;;;;;0.20;0.20;;;;;;;;;;5032443;28;20045;-64
2021/12/31 08:46:09;;;;;;;1.48;0.20;;;;;;;;;;5032791;28;20017;-64
2021/12/31 08:48:34;;;;;;;0.35;0.10;;;;;;;;;;5033506;28;20462;-64
2021/12/31 08:50:59;;;;;;;0.40;0.20;;;;;;;;;;5034033;28;20056;-64
2021/12/31 08:53:24;;;;;;;2.00;0.20;;;;;;;;;;5031072;28;20386;-64
2021/12/31 08:55:50;;;;;;;0.52;0.20;;;;;;;;;;5032944;28;20112;-64
2021/12/31 08:58:15;;;;;;;0.85;0.20;;;;;;;;;;5033160;28;20033;-65
2021/12/31 09:00:40;;;;;;;0.75;0.17;;;;;;;;;;5032991;28;20021;-64
2021/12/31 09:03:05;;;;;;;0.40;0.20;;;;;;;;;;5033059;28;20041;-64
2021/12/31 09:05:33;;;;;;;1.00;0.30;;;;;;;;;;5032470;28;20476;-64
2021/12/31 09:07:58;;;;;;;0.80;0.20;;;;;;;;;;5033519;28;20393;-65
2021/12/31 09:10:23;;;;;;;1.48;0.40;;;;;;;;;;5027617;28;20474;-65
2021/12/31 09:12:50;;;;;;;0.98;0.20;;;;;;;;;;5031772;28;20025;-66
2021/12/31 09:15:15;;;;;;;1.25;0.20;;;;;;;;;;5003092;28;20494;-65
2021/12/31 09:17:40;;;;;;;1.70;0.15;;;;;;;;;;5028969;28;20022;-65
2021/12/31 09:20:06;;;;;;;0.68;0.20;;;;;;;;;;5031349;28;20040;-65
2021/12/31 09:22:31;;;;;;;1.00;0.20;;;;;;;;;;5031639;28;20037;-65
2021/12/31 09:24:58;;;;;;;0.85;0.20;;;;;;;;;;5032627;28;20017;-65
2021/12/31 09:27:23;;;;;;;0.52;0.43;;;;;;;;;;5032853;28;20029;-65
2021/12/31 09:29:49;;;;;;;1.38;0.20;;;;;;;;;;5032471;28;20104;-66
2021/12/31 09:32:14;;;;;;;0.55;0.20;;;;;;;;;;5032920;28;20038;-66
2021/12/31 09:34:43;;;;;;;1.05;0.50;;;;;;;;;;5031106;28;20160;-65
2021/12/31 09:37:08;;;;;;;0.30;0.30;;;;;;;;;;5031820;28;20063;-65
2021/12/31 09:39:33;;;;;;;0.82;0.20;;;;;;;;;;5008128;28;20030;-66
2021/12/31 09:41:58;;;;;;;1.13;0.20;;;;;;;;;;5029389;28;20049;-66
2021/12/31 09:44:24;;;;;;;1.27;0.20;;;;;;;;;;5032205;28;20232;-65
2021/12/31 09:46:50;;;;;;;1.08;0.20;;;;;;;;;;5032698;28;20536;-65
2021/12/31 09:49:15;;;;;;;1.33;0.20;;;;;;;;;;5026306;28;20030;-65
2021/12/31 09:51:41;;;;;;;0.65;0.20;;;;;;;;;;5031480;28;20057;-66
2021/12/31 09:54:06;;;;;;;0.55;0.20;;;;;;;;;;5032224;28;20026;-65
2021/12/31 09:56:37;;;;;;;0.52;0.20;;;;;;;;;;5031928;28;20026;-65
2021/12/31 09:59:02;;;;;;;1.13;0.43;;;;;;;;;;5026881;28;20463;-65
2021/12/31 10:01:28;;;;;;;0.80;0.20;;;;;;;;;;5014537;28;20029;-65
2021/12/31 10:03:57;;;;;;;0.77;0.20;;;;;;;;;;5030273;28;20025;-65
2021/12/31 10:06:24;;;;;;;0.50;0.20;;;;;;;;;;5014103;28;20025;-65
2021/12/31 10:08:49;;;;;;;0.82;0.20;;;;;;;;;;5032009;28;20087;-65
2021/12/31 10:11:17;;;;;;;1.80;0.40;;;;;;;;;;5025894;28;20037;-66
2021/12/31 10:13:52;;;;;;;0.50;0.30;;;;;;;;;;5031830;28;20075;-66
2021/12/31 10:16:30;;;;;;;1.17;0.20;;;;;;;;;;5003476;28;20018;-66
2021/12/31 10:19:07;;;;;;;1.50;0.30;;;;;;;;;;5031482;28;20100;-66
2021/12/31 10:21:41;;;;;;;1.55;0.20;;;;;;;;;;5031278;28;20029;-66
2021/12/31 10:24:25;;;;;;;3.00;0.30;;;;;;;;;;5031303;28;20108;-67
2021/12/31 10:26:51;;;;;;;2.15;0.30;;;;;;;;;;5031628;28;20021;-66
2021/12/31 10:29:16;;;;;;;0.55;0.20;;;;;;;;;;5031355;28;20048;-66
2021/12/31 10:31:51;;;;;;;1.08;0.30;;;;;;;;;;5031715;28;20076;-67
2021/12/31 10:34:28;;;;;;;1.77;0.40;;;;;;;;;;5030970;28;20026;-67
2021/12/31 10:36:53;;;;;;;0.70;0.50;;;;;;;;;;5012222;28;20021;-67
2021/12/31 10:39:23;;;;;;;0.75;0.25;;;;;;;;;;5029512;28;20029;-65
2021/12/31 10:42:00;;;;;;;0.75;0.20;;;;;;;;;;5010737;28;20406;-66
2021/12/31 10:44:44;;;;;;;0.47;0.20;;;;;;;;;;5027170;28;20140;-66
2021/12/31 10:47:11;;;;;;;0.85;0.20;;;;;;;;;;5031547;28;20102;-66
2021/12/31 10:49:55;;;;;;;1.00;0.20;;;;;;;;;;5030842;28;20052;-66
2021/12/31 10:52:25;;;;;;;0.82;0.20;;;;;;;;;;5031010;28;20025;-67
2021/12/31 10:55:01;;;;;;;1.02;0.30;;;;;;;;;;5026668;28;20044;-67
2021/12/31 10:57:37;;;;;;;1.15;0.20;;;;;;;;;;5028072;28;20017;-67
2021/12/31 11:00:04;;;;;;;0.30;0.15;;;;;;;;;;5031660;28;20044;-67
2021/12/31 11:02:31;;;;;;;1.27;0.20;;;;;;;;;;5031614;28;20053;-67
2021/12/31 11:04:56;;;;;;;1.15;0.20;;;;;;;;;;5012206;28;20367;-67
2021/12/31 11:07:21;;;;;;;1.00;0.47;;;;;;;;;;5030451;28;20104;-67
2021/12/31 11:09:47;;;;;;;0.30;0.20;;;;;;;;;;5025666;28;20120;-67
2021/12/31 11:12:12;;;;;;;0.20;0.20;;;;;;;;;;5028645;28;20119;-65
2021/12/31 11:14:37;;;;;;;0.30;0.20;;;;;;;;;;5029341;28;20021;-67
2021/12/31 11:17:03;;;;;;;0.52;0.20;;;;;;;;;;5029169;28;20434;-67
2021/12/31 11:19:28;;;;;;;0.57;0.20;;;;;;;;;;5003965;28;20068;-67
2021/12/31 11:21:54;;;;;;;0.40;0.20;;;;;;;;;;5031320;28;20630;-67
2021/12/31 11:24:34;;;;;;;0.20;0.10;;;;;;;;;;5030648;28;20371;-65
2021/12/31 11:26:59;;;;;;;0.75;0.30;;;;;;;;;;5029979;28;20018;-67
2021/12/31 11:29:33;;;;;;;1.38;0.32;;;;;;;;;;5030287;28;20021;-67
2021/12/31 11:31:59;;;;;;;0.80;0.30;;;;;;;;;;5030838;28;20025;-67
2021/12/31 11:34:27;;;;;;;0.30;0.10;;;;;;;;;;5030207;28;20041;-67
2021/12/31 11:36:54;;;;;;;1.58;0.22;;;;;;;;;;5030414;28;20373;-65
2021/12/31 11:39:24;;;;;;;0.55;0.10;;;;;;;;;;5027780;28;20029;-65
2021/12/31 11:41:50;;;;;;;0.75;0.73;;;;;;;;;;5026798;28;20038;-65
2021/12/31 11:44:17;;;;;;;0.93;0.20;;;;;;;;;;5030947;28;20032;-65
2021/12/31 11:46:47;;;;;;;1.75;0.17;;;;;;;;;;5030145;28;20409;-65
2021/12/31 11:49:19;;;;;;;0.55;0.20;;;;;;;;;;5029508;28;20037;-65
2021/12/31 11:52:08;;;;;;;0.50;0.20;;;;;;;;;;5011068;28;20633;-65
2021/12/31 11:54:34;;;;;;;0.70;0.20;;;;;;;;;;5017581;28;20033;-65
2021/12/31 11:57:00;;;;;;;1.50;0.20;;;;;;;;;;5029859;28;20052;-65
2021/12/31 11:59:26;;;;;;;0.80;0.20;;;;;;;;;;5030109;28;20123;-65
2021/12/31 12:01:52;;;;;;;0.15;0.10;;;;;;;;;;5012827;28;20462;-65
2021/12/31 12:04:18;;;;;;;0.63;0.20;;;;;;;;;;5032866;28;20554;-65
2021/12/31 12:07:02;;;;;;;1.02;0.20;;;;;;;;;;5034383;28;20101;-65
2021/12/31 12:09:36;;;;;;;1.38;0.20;;;;;;;;;;5031042;28;20026;-65
2021/12/31 12:12:03;;;;;;;1.75;0.30;;;;;;;;;;5014919;28;20020;-67
2021/12/31 12:14:36;;;;;;;0.93;0.10;;;;;;;;;;5034502;28;20029;-67
2021/12/31 12:17:02;;;;;;;0.63;0.20;;;;;;;;;;5034263;28;20030;-66
2021/12/31 12:19:46;;;;;;;1.05;0.20;;;;;;;;;;5033020;28;20361;-66
2021/12/31 12:22:27;;;;;;;1.10;0.30;;;;;;;;;;5014579;28;20018;-66
2021/12/31 12:24:53;;;;;;;1.15;0.22;;;;;;;;;;5032653;28;20025;-66
2021/12/31 12:27:20;;;;;;;1.65;0.22;;;;;;;;;;5034044;28;20057;-66
2021/12/31 12:29:45;;;;;;;0.70;0.35;;;;;;;;;;5025998;28;20101;-67
2021/12/31 12:32:12;;;;;;;0.30;0.10;;;;;;;;;;5033539;28;20152;-67
2021/12/31 12:34:37;;;;;;;1.23;0.20;;;;;;;;;;5033836;28;20075;-67
2021/12/31 12:37:03;;;;;;;0.52;0.20;;;;;;;;;;5033874;28;20277;-66
2021/12/31 12:39:29;;;;;;;4.75;3.10;;;;;;;;;;5029131;28;20482;-67
2021/12/31 12:41:54;;;;;;;2.05;0.57;;;;;;;;;;5029897;28;20112;-66
2021/12/31 12:44:20;;;;;;;2.72;1.40;;;;;;;;;;5024611;28;20498;-66
2021/12/31 12:46:51;;;;;;;0.85;0.52;;;;;;;;;;5033970;28;20024;-67
2021/12/31 12:49:18;;;;;;;1.27;0.30;;;;;;;;;;5015519;28;20029;-66
2021/12/31 12:51:43;;;;;;;1.70;1.00;;;;;;;;;;5033085;28;20036;-67
2021/12/31 12:54:11;;;;;;;1.00;0.30;;;;;;;;;;5033168;28;20026;-66
2021/12/31 12:56:36;;;;;;;1.85;0.40;;;;;;;;;;5033306;28;20371;-67
2021/12/31 12:59:02;;;;;;;0.73;0.20;;;;;;;;;;5033274;28;20116;-65
2021/12/31 13:01:30;;;;;;;0.45;0.20;;;;;;;;;;5033557;28;20022;-65
2021/12/31 13:03:56;;;;;;;1.48;0.25;;;;;;;;;;5033178;28;20045;-65
2021/12/31 13:06:22;;;;;;;0.30;0.20;;;;;;;;;;5033932;28;20053;-65
2021/12/31 13:08:47;;;;;;;0.68;0.20;;;;;;;;;;5033235;28;20096;-65
2021/12/31 13:11:14;;;;;;;2.05;0.30;;;;;;;;;;5029148;28;20133;-65
2021/12/31 13:13:39;;;;;;;0.60;0.30;;;;;;;;;;5028604;28;20026;-65
2021/12/31 13:16:06;;;;;;;1.50;0.52;;;;;;;;;;5030524;28;20385;-65
2021/12/31 13:18:33;;;;;;;0.55;0.30;;;;;;;;;;5032326;28;20064;-65
2021/12/31 13:21:01;;;;;;;1.67;0.30;;;;;;;;;;5033239;28;20013;-65
2021/12/31 13:23:26;;;;;;;0.80;0.30;;;;;;;;;;5025427;28;20108;-65
2021/12/31 13:25:51;;;;;;;0.73;0.30;;;;;;;;;;5030397;28;20439;-65
2021/12/31 13:28:21;;;;;;;0.50;0.22;;;;;;;;;;5015324;28;20037;-65
2021/12/31 13:30:57;;;;;;;0.47;0.20;;;;;;;;;;5032823;28;20021;-65
2021/12/31 13:33:30;;;;;;;1.15;0.40;;;;;;;;;;5014807;28;20493;-65
2021/12/31 13:36:33;;;;;;;1.63;0.30;;;;;;;;;;5033251;28;20079;-65
2021/12/31 13:39:06;;;;;;;1.30;0.30;;;;;;;;;;4932370;29;20047;-65
2021/12/31 13:41:33;;;;;;;0.77;0.30;;;;;;;;;;4929922;29;20131;-65
2021/12/31 13:44:00;;;;;;;1.42;0.50;;;;;;;;;;4930480;29;20039;-66
2021/12/31 13:46:31;;;;;;;1.20;0.35;;;;;;;;;;4927472;29;20047;-65
2021/12/31 13:49:09;;;;;;;1.05;0.30;;;;;;;;;;4922664;29;20027;-66
2021/12/31 13:51:36;;;;;;;1.67;0.30;;;;;;;;;;4929844;29;20529;-65
2021/12/31 13:54:02;;;;;;;1.65;0.50;;;;;;;;;;4933002;29;20042;-65
2021/12/31 13:56:41;;;;;;;1.30;0.28;;;;;;;;;;4919532;29;20118;-65
2021/12/31 13:59:23;;;;;;;0.50;0.38;;;;;;;;;;4919199;29;20075;-65
2021/12/31 14:02:08;;;;;;;0.70;0.30;;;;;;;;;;4931597;29;20112;-65
2021/12/31 14:04:35;;;;;;;1.55;0.28;;;;;;;;;;4931533;29;20028;-65
2021/12/31 14:07:16;;;;;;;0.60;0.20;;;;;;;;;;4932052;29;20035;-65
2021/12/31 14:09:42;;;;;;;0.70;0.30;;;;;;;;;;4976823;28;20171;-65
2021/12/31 14:12:07;;;;;;;1.25;0.50;;;;;;;;;;5029876;28;20105;-65
2021/12/31 14:14:33;;;;;;;0.88;0.60;;;;;;;;;;5031556;28;20056;-65
2021/12/31 14:16:58;;;;;;;1.17;0.60;;;;;;;;;;5014340;28;20033;-65
2021/12/31 14:19:23;;;;;;;0.75;0.30;;;;;;;;;;5032156;28;20041;-65
2021/12/31 14:21:48;;;;;;;0.77;0.50;;;;;;;;;;5014417;28;20028;-65
2021/12/31 14:24:13;;;;;;;1.00;0.40;;;;;;;;;;5031110;28;20399;-65
2021/12/31 14:26:39;;;;;;;1.23;0.40;;;;;;;;;;5031983;28;20445;-65
2021/12/31 14:29:04;;;;;;;1.25;0.60;;;;;;;;;;5031044;28;20112;-65
2021/12/31 14:31:29;;;;;;;0.60;0.45;;;;;;;;;;5031839;28;20017;-65
2021/12/31 14:33:55;;;;;;;0.93;0.40;;;;;;;;;;5013642;28;20037;-65
2021/12/31 14:36:22;;;;;;;0.50;0.40;;;;;;;;;;5014161;28;20037;-65
2021/12/31 14:38:47;;;;;;;0.60;0.40;;;;;;;;;;5031100;28;20608;-65
2021/12/31 14:41:21;;;;;;;1.23;0.50;;;;;;;;;;5023146;28;20057;-65
2021/12/31 14:43:48;;;;;;;1.77;0.60;;;;;;;;;;5015923;28;20075;-66